createdAt,value
2023-02-09T02:21:09.896Z,34.70
2023-02-09T02:23:48.603Z,44.20
2023-02-09T02:26:55.580Z,46.00
2023-02-09T02:29:48.633Z,47.40
2023-02-09T02:32:31.749Z,51.80
2023-02-09T02:35:19.904Z,49.70
2023-02-09T02:38:00.438Z,47.40
2023-02-09T02:40:49.926Z,52.70
2023-02-09T02:43:25.650Z,47.60
2023-02-09T02:46:04.896Z,38.00
2023-02-09T02:48:38.486Z,46.80
2023-02-09T02:51:10.599Z,57.30
2023-02-09T02:53:41.699Z,62.00
2023-02-09T02:56:15.744Z,59.80
2023-02-09T02:58:44.959Z,50.60
2023-02-09T03:01:15.101Z,47.30
2023-02-09T03:03:43.977Z,46.50
2023-02-09T03:06:12.361Z,49.20
2023-02-09T03:08:57.073Z,49.20
2023-02-09T03:11:30.787Z,60.80
2023-02-09T03:14:14.204Z,77.20
2023-02-09T03:17:07.049Z,66.30
2023-02-09T03:20:01.649Z,81.40
2023-02-09T03:22:37.294Z,81.50
2023-02-09T03:25:14.253Z,101.70
2023-02-09T03:27:48.216Z,114.30
2023-02-09T03:30:16.797Z,98.60
2023-02-09T03:32:46.088Z,68.10
2023-02-09T03:35:16.420Z,63.30
2023-02-09T03:37:44.766Z,72.50
2023-02-09T03:40:13.689Z,68.00
2023-02-09T03:42:42.057Z,55.60
2023-02-09T03:45:10.224Z,73.20
2023-02-09T03:47:38.501Z,68.20
2023-02-09T03:50:07.710Z,74.90
2023-02-09T03:52:35.983Z,76.40
2023-02-09T03:55:05.432Z,92.10
2023-02-09T03:57:33.626Z,91.80
2023-02-09T04:00:03.631Z,72.50
2023-02-09T04:02:40.423Z,68.20
2023-02-09T04:05:09.067Z,65.40
2023-02-09T04:07:41.879Z,78.50
2023-02-09T04:10:11.139Z,71.20
2023-02-09T04:12:39.533Z,72.10
2023-02-09T04:15:09.763Z,67.60
2023-02-09T04:17:38.872Z,74.90
2023-02-09T04:20:07.763Z,67.10
2023-02-09T04:22:36.823Z,72.20
2023-02-09T04:25:07.575Z,76.60
2023-02-09T04:27:35.938Z,82.50
2023-02-09T04:30:04.502Z,81.70
2023-02-09T04:32:32.998Z,83.60
2023-02-09T04:35:02.197Z,88.50
2023-02-09T04:37:30.630Z,87.50
2023-02-09T04:39:58.659Z,82.30
2023-02-09T04:42:26.786Z,71.40
2023-02-09T04:44:55.215Z,102.50
2023-02-09T04:47:23.339Z,99.10
2023-02-09T04:49:51.623Z,117.80
2023-02-09T04:52:19.845Z,109.50
2023-02-09T04:54:47.949Z,100.60
2023-02-09T04:57:34.885Z,95.00
2023-02-09T05:00:03.316Z,111.80
2023-02-09T06:57:04.591Z,76.40
2023-02-09T06:59:32.716Z,98.10
2023-02-09T07:02:00.812Z,91.40
2023-02-09T07:04:29.084Z,89.10
2023-02-09T07:06:57.883Z,76.20
2023-02-09T07:09:26.264Z,67.10
2023-02-09T07:11:55.427Z,63.30
2023-02-09T07:14:23.583Z,66.70
2023-02-09T07:16:51.822Z,65.00
2023-02-09T07:19:21.237Z,52.50
2023-02-09T07:21:49.570Z,49.10
2023-02-09T07:24:18.404Z,34.00
2023-02-09T07:26:46.672Z,30.50
2023-02-09T07:29:14.761Z,25.50
2023-02-09T07:31:43.184Z,27.70
2023-02-09T07:34:11.636Z,25.10
2023-02-09T07:36:40.099Z,22.00
2023-02-09T07:39:08.704Z,27.50
2023-02-09T07:41:37.188Z,30.60
2023-02-09T07:44:05.671Z,31.90
2023-02-09T07:46:34.134Z,29.90
2023-02-09T07:49:02.350Z,25.40
2023-02-09T07:51:32.858Z,33.90
2023-02-09T07:54:02.909Z,19.30
2023-02-09T07:56:31.379Z,28.20
2023-02-09T07:58:59.960Z,31.30
2023-02-09T08:01:28.590Z,33.40
2023-02-09T08:03:57.388Z,31.10
2023-02-09T08:06:43.141Z,33.60
2023-02-09T08:09:14.303Z,34.30
2023-02-09T08:11:45.808Z,23.10
2023-02-09T08:14:18.263Z,25.10
2023-02-09T08:16:46.483Z,28.60
2023-02-09T08:19:19.519Z,27.90
2023-02-09T08:21:48.438Z,28.60
2023-02-09T08:24:17.567Z,37.30
2023-02-09T08:26:45.842Z,37.40
2023-02-09T08:29:14.151Z,34.00
2023-02-09T08:31:44.953Z,39.20
2023-02-09T08:34:18.054Z,32.60
2023-02-09T08:36:46.398Z,31.30
2023-02-09T08:39:14.720Z,36.80
2023-02-09T08:41:45.172Z,30.90
2023-02-09T08:44:14.498Z,35.80
2023-02-09T08:46:43.313Z,32.10
2023-02-09T08:49:11.742Z,31.90
2023-02-09T08:51:40.226Z,40.20
2023-02-09T08:54:09.016Z,44.20
2023-02-09T08:56:38.426Z,38.30
2023-02-09T08:59:07.124Z,36.10
2023-02-09T09:01:35.353Z,42.20
2023-02-09T09:04:04.240Z,41.30
2023-02-09T09:06:32.619Z,47.90
2023-02-09T09:09:01.346Z,44.10
2023-02-09T09:11:29.958Z,46.80
2023-02-09T09:13:58.440Z,47.00
2023-02-09T09:16:26.774Z,40.40
2023-02-09T09:18:55.831Z,45.60
2023-02-09T09:21:24.104Z,49.30
2023-02-09T09:23:52.484Z,56.80
2023-02-09T09:26:21.498Z,44.20
2023-02-09T09:28:51.145Z,45.90
2023-02-09T09:31:19.475Z,49.40
2023-02-09T09:33:48.031Z,42.40
2023-02-09T09:36:16.658Z,49.60
2023-02-09T09:38:45.366Z,49.10
2023-02-09T09:41:23.027Z,47.70
2023-02-09T09:43:51.187Z,49.70
2023-02-09T09:46:21.447Z,49.60
2023-02-09T09:48:54.769Z,55.00
2023-02-09T09:51:29.655Z,47.30
2023-02-09T09:53:58.258Z,48.80
2023-02-09T09:56:27.279Z,48.20
2023-02-09T09:58:55.398Z,35.20
2023-02-09T10:01:23.658Z,33.20
2023-02-09T10:03:52.001Z,31.10
2023-02-09T10:06:21.926Z,40.00
2023-02-09T10:09:10.199Z,32.40
2023-02-09T10:11:42.885Z,37.00
2023-02-09T10:14:11.562Z,31.80
2023-02-09T10:16:40.041Z,34.60
2023-02-09T10:19:21.395Z,35.50
2023-02-09T10:21:49.762Z,32.80
2023-02-09T10:24:24.186Z,27.40
2023-02-09T10:27:14.879Z,35.80
2023-02-09T10:29:44.189Z,25.20
2023-02-09T10:32:39.978Z,24.20
2023-02-09T10:35:35.967Z,25.00
2023-02-09T10:38:04.256Z,33.80
2023-02-09T10:40:33.833Z,34.50
2023-02-09T10:43:03.920Z,33.40
2023-02-09T10:45:40.001Z,30.30
2023-02-09T10:51:01.220Z,24.10
2023-02-09T10:53:40.194Z,26.80
2023-02-09T10:56:22.475Z,26.40
2023-02-09T10:59:14.855Z,31.10
2023-02-09T11:01:43.821Z,26.10
2023-02-09T11:04:20.548Z,24.70
2023-02-09T11:06:55.688Z,28.00
2023-02-09T11:09:34.726Z,22.60
2023-02-09T11:12:03.289Z,23.50
2023-02-09T11:14:34.539Z,26.80
2023-02-09T11:17:14.532Z,31.00
2023-02-09T11:20:13.779Z,22.70
2023-02-09T11:23:10.271Z,22.80
2023-02-09T11:25:46.987Z,23.50
2023-02-09T11:28:30.639Z,19.50
2023-02-09T11:31:08.208Z,17.00
2023-02-09T11:33:51.099Z,21.00
2023-02-09T11:36:41.418Z,21.50
2023-02-09T11:39:17.457Z,25.30
2023-02-09T11:42:25.782Z,22.30
2023-02-09T11:44:57.191Z,18.60
2023-02-09T11:47:32.937Z,25.30
2023-02-09T11:50:02.176Z,22.00
2023-02-09T11:52:37.445Z,20.50
2023-02-09T11:55:28.798Z,21.80
2023-02-09T11:58:12.735Z,20.60
2023-02-09T12:00:53.442Z,23.20
2023-02-09T12:03:26.177Z,20.10
2023-02-09T12:05:54.554Z,18.80
2023-02-09T12:08:49.111Z,17.40
2023-02-09T12:11:48.420Z,17.30
2023-02-09T12:14:23.407Z,14.50
2023-02-09T12:16:58.581Z,27.60
2023-02-09T12:19:37.214Z,21.40
2023-02-09T12:22:34.194Z,19.00
2023-02-09T12:25:05.693Z,22.80
2023-02-09T12:27:38.984Z,24.00
2023-02-09T12:30:41.192Z,19.50
2023-02-09T12:33:25.208Z,21.80
2023-02-09T12:36:09.368Z,19.20
2023-02-09T12:38:57.056Z,16.80
2023-02-09T12:41:41.012Z,17.30
2023-02-09T12:44:10.095Z,20.10
2023-02-09T12:46:44.102Z,16.90
2023-02-09T12:49:12.597Z,14.40
2023-02-09T12:51:46.724Z,19.60
2023-02-09T12:54:40.972Z,17.10
2023-02-09T12:57:14.998Z,14.90
2023-02-09T12:59:52.680Z,14.70
2023-02-09T13:02:39.857Z,20.90
2023-02-09T13:05:17.084Z,21.60
2023-02-09T13:07:53.165Z,23.50
2023-02-09T13:10:26.064Z,21.10
2023-02-09T13:13:10.435Z,26.20
2023-02-09T13:15:54.830Z,20.20
2023-02-09T13:18:41.837Z,20.50
2023-02-09T13:21:32.837Z,23.20
2023-02-09T13:24:11.859Z,23.10
2023-02-09T13:26:57.436Z,23.70
2023-02-09T13:29:26.446Z,23.60
2023-02-09T13:31:59.563Z,27.40
2023-02-09T13:34:53.087Z,36.80
2023-02-09T13:37:26.378Z,25.10
2023-02-09T13:40:01.297Z,22.90
2023-02-09T13:42:31.356Z,25.20
2023-02-09T13:44:59.647Z,23.20
2023-02-09T13:47:27.994Z,16.50
2023-02-09T13:50:01.605Z,15.20
2023-02-09T13:52:36.893Z,18.10
2023-02-09T13:55:19.167Z,24.80
2023-02-09T13:58:02.263Z,16.80
2023-02-09T14:00:50.009Z,29.40
2023-02-09T14:05:53.703Z,20.60
2023-02-09T14:08:22.447Z,24.50
2023-02-09T14:11:03.274Z,24.30
2023-02-09T14:13:46.494Z,24.90
2023-02-09T14:16:15.853Z,26.10
2023-02-09T14:18:48.270Z,24.00
2023-02-09T14:21:24.082Z,22.70
2023-02-09T14:23:58.534Z,22.40
2023-02-09T14:26:42.372Z,24.60
2023-02-09T14:29:45.850Z,22.40
2023-02-09T14:32:36.030Z,24.60
2023-02-09T14:35:30.909Z,22.40
2023-02-09T14:38:01.385Z,23.60
2023-02-09T14:40:34.771Z,30.20
2023-02-09T14:43:27.447Z,21.40
2023-02-09T14:46:00.310Z,23.70
2023-02-09T14:48:29.577Z,24.60
2023-02-09T14:50:59.865Z,35.00
2023-02-09T14:53:31.668Z,25.30
2023-02-09T14:56:00.557Z,29.70
2023-02-09T14:58:30.168Z,31.40
2023-02-09T15:01:00.522Z,33.10
2023-02-09T15:03:29.117Z,28.80
2023-02-09T15:06:06.387Z,33.90
2023-02-09T15:08:36.194Z,32.30
2023-02-09T15:11:27.563Z,30.70
2023-02-09T15:13:58.122Z,33.40
2023-02-09T15:16:26.399Z,40.40
2023-02-09T15:18:54.658Z,33.40
2023-02-09T15:21:22.982Z,28.40
2023-02-09T15:23:51.289Z,29.50
2023-02-09T15:26:22.819Z,41.30
2023-02-09T15:28:50.930Z,43.30
2023-02-09T15:31:19.345Z,47.10
2023-02-09T15:33:47.713Z,46.40
2023-02-09T15:36:18.605Z,45.20
2023-02-09T15:38:47.129Z,39.30
2023-02-09T15:41:36.081Z,39.00
2023-02-09T15:44:29.775Z,50.80
2023-02-09T15:47:16.900Z,53.60
2023-02-09T15:49:45.078Z,57.50
2023-02-09T15:52:14.521Z,67.80
2023-02-09T15:54:42.791Z,72.60
2023-02-09T15:57:14.222Z,67.40
2023-02-09T15:59:42.801Z,79.10
2023-02-09T16:02:14.747Z,72.00
2023-02-09T16:04:43.256Z,68.60
2023-02-09T16:07:24.612Z,74.80
2023-02-09T16:09:52.746Z,79.30
2023-02-09T16:12:21.551Z,85.80
2023-02-09T16:14:50.695Z,81.10
2023-02-09T16:17:21.443Z,87.50
2023-02-09T16:19:49.567Z,84.60
2023-02-09T16:22:22.717Z,78.90
2023-02-09T16:24:52.031Z,83.30
2023-02-09T16:27:24.732Z,78.60
2023-02-09T16:29:52.863Z,77.00
2023-02-09T16:32:22.693Z,76.30
2023-02-09T16:34:51.282Z,72.30
2023-02-09T16:37:29.336Z,66.20
2023-02-09T16:39:58.418Z,84.50
2023-02-09T16:42:26.872Z,94.70
2023-02-09T16:44:56.881Z,89.40
2023-02-09T16:47:26.811Z,105.90
2023-02-09T16:50:05.984Z,93.50
2023-02-09T16:52:34.221Z,85.60
2023-02-09T16:55:05.690Z,82.10
2023-02-09T16:57:34.369Z,88.80
2023-02-09T17:00:02.869Z,85.40
2023-02-09T17:02:40.137Z,83.00
2023-02-09T17:05:32.089Z,81.60
2023-02-09T17:08:03.765Z,63.70
2023-02-09T17:10:34.349Z,81.30
2023-02-09T17:13:04.767Z,71.60
2023-02-09T17:15:39.482Z,73.60
2023-02-09T17:18:08.248Z,72.20
2023-02-09T17:20:42.236Z,57.00
2023-02-09T17:23:15.928Z,54.80
2023-02-09T17:25:45.216Z,65.40
2023-02-09T17:28:14.721Z,78.80
2023-02-09T17:30:43.082Z,99.60
2023-02-09T17:33:15.946Z,100.50
2023-02-09T17:36:17.729Z,108.50
2023-02-09T17:38:34.662Z,100.60
2023-02-09T17:41:05.709Z,111.40
2023-02-09T17:43:34.398Z,104.10
2023-02-09T17:46:05.426Z,122.00
2023-02-09T17:48:33.927Z,124.00
2023-02-09T17:51:02.854Z,132.80
2023-02-09T17:53:33.622Z,122.30
2023-02-09T17:56:02.716Z,129.20
2023-02-09T17:58:31.545Z,136.70
2023-02-09T18:00:59.976Z,137.90
2023-02-09T18:03:28.625Z,135.10
2023-02-09T18:05:58.801Z,130.90
2023-02-09T18:08:27.585Z,123.40
2023-02-09T18:10:58.833Z,116.50
2023-02-09T18:13:27.472Z,135.10
2023-02-09T18:15:56.612Z,157.70
2023-02-09T18:18:24.841Z,165.20
2023-02-09T18:20:53.145Z,150.40
2023-02-09T18:23:23.160Z,146.30
2023-02-09T18:25:51.384Z,160.00
2023-02-09T18:28:19.853Z,148.80
2023-02-09T18:30:48.712Z,114.70
2023-02-09T18:33:17.512Z,135.20
2023-02-09T18:35:46.264Z,125.40
2023-02-09T18:38:15.357Z,120.30
2023-02-09T18:40:43.692Z,105.40
2023-02-09T18:43:14.754Z,103.50
2023-02-09T18:45:43.103Z,108.10
2023-02-09T18:48:11.999Z,122.10
